createdAt,value
2018-11-25T00:00:24.010Z,7.51
2018-11-25T00:02:53.233Z,7.57
2018-11-25T00:05:22.481Z,7.58
2018-11-25T00:07:51.682Z,7.63
2018-11-25T00:10:20.946Z,7.66
2018-11-25T00:12:50.122Z,7.80
2018-11-25T00:15:19.603Z,7.88
2018-11-25T00:17:48.837Z,7.86
2018-11-25T00:20:18.383Z,7.75
2018-11-25T00:22:47.591Z,7.85
2018-11-25T00:25:17.852Z,7.87
2018-11-25T00:27:47.049Z,7.85
2018-11-25T00:30:17.645Z,7.83
2018-11-25T00:32:46.832Z,7.79
2018-11-25T00:35:17.982Z,7.69
2018-11-25T00:37:48.347Z,7.75
2018-11-25T00:40:18.958Z,7.74
2018-11-25T00:42:48.172Z,7.70
2018-11-25T00:45:20.838Z,7.78
2018-11-25T00:47:50.467Z,7.91
2018-11-25T00:50:20.258Z,7.91
2018-11-25T00:52:49.456Z,7.92
2018-11-25T00:55:19.061Z,7.89
2018-11-25T00:57:48.364Z,7.82
2018-11-25T01:00:19.899Z,7.91
2018-11-25T01:02:50.033Z,7.98
2018-11-25T01:05:19.639Z,7.64
2018-11-25T01:07:48.849Z,7.47
2018-11-25T01:10:18.884Z,7.43
2018-11-25T01:12:48.137Z,7.40
2018-11-25T01:15:18.504Z,7.38
2018-11-25T01:17:47.751Z,7.39
2018-11-25T01:20:18.731Z,7.52
2018-11-25T01:22:47.980Z,7.58
2018-11-25T01:25:17.747Z,7.60
2018-11-25T01:27:46.980Z,7.38
2018-11-25T01:30:17.600Z,7.24
2018-11-25T01:32:46.808Z,7.21
2018-11-25T01:35:17.155Z,7.16
2018-11-25T01:37:46.429Z,7.15
2018-11-25T01:40:18.689Z,7.10
2018-11-25T01:42:48.304Z,7.05
2018-11-25T01:45:19.544Z,7.38
2018-11-25T01:47:48.739Z,7.37
2018-11-25T01:50:18.959Z,7.37
2018-11-25T01:52:48.311Z,7.52
2018-11-25T01:55:20.086Z,7.38
2018-11-25T01:57:49.291Z,7.29
2018-11-25T02:00:19.798Z,7.50
2018-11-25T02:02:49.272Z,7.55
2018-11-25T02:05:19.343Z,7.47
2018-11-25T02:07:48.536Z,7.39
2018-11-25T02:10:19.899Z,7.31
2018-11-25T02:12:49.100Z,7.40
2018-11-25T02:15:19.615Z,7.39
2018-11-25T02:17:48.789Z,7.19
2018-11-25T02:20:21.951Z,7.31
2018-11-25T02:22:52.028Z,7.45
2018-11-25T02:25:21.289Z,7.54
2018-11-25T02:27:51.491Z,7.52
2018-11-25T02:30:20.769Z,7.46
2018-11-25T02:32:49.975Z,7.56
2018-11-25T02:35:19.875Z,7.46
2018-11-25T02:37:49.204Z,7.42
2018-11-25T02:40:18.898Z,7.44
2018-11-25T02:42:48.112Z,7.38
2018-11-25T02:45:19.896Z,7.46
2018-11-25T02:47:49.065Z,7.38
2018-11-25T02:50:25.945Z,7.29
2018-11-25T02:52:56.056Z,7.15
2018-11-25T02:55:26.037Z,7.18
2018-11-25T02:57:55.311Z,7.32
2018-11-25T03:00:24.674Z,7.49
2018-11-25T03:02:53.922Z,7.52
2018-11-25T03:05:23.136Z,7.59
2018-11-25T03:07:52.400Z,7.51
2018-11-25T03:10:22.050Z,7.43
2018-11-25T03:12:51.278Z,7.44
2018-11-25T03:15:20.763Z,7.33
2018-11-25T03:17:49.945Z,7.57
2018-11-25T03:20:19.245Z,7.51
2018-11-25T03:22:48.459Z,7.37
2018-11-25T03:25:19.756Z,7.40
2018-11-25T03:27:49.022Z,7.31
2018-11-25T03:30:21.001Z,7.31
2018-11-25T03:32:52.088Z,7.36
2018-11-25T03:35:21.819Z,7.43
2018-11-25T03:37:51.004Z,7.36
2018-11-25T03:40:20.408Z,7.44
2018-11-25T03:42:49.657Z,7.45
2018-11-25T03:45:20.752Z,7.39
2018-11-25T03:47:50.001Z,7.37
2018-11-25T03:50:19.378Z,7.45
2018-11-25T03:52:48.555Z,7.39
2018-11-25T03:55:18.699Z,7.51
2018-11-25T03:57:47.967Z,7.48
2018-11-25T04:00:20.742Z,7.53
2018-11-25T04:02:51.045Z,7.58
2018-11-25T04:05:21.088Z,7.61
2018-11-25T04:07:50.350Z,7.52
2018-11-25T04:10:20.557Z,7.52
2018-11-25T04:12:49.811Z,7.57
2018-11-25T04:15:20.384Z,7.53
2018-11-25T04:17:49.756Z,7.40
2018-11-25T04:20:20.231Z,7.13
2018-11-25T04:22:49.832Z,7.09
2018-11-25T04:25:19.892Z,7.16
2018-11-25T04:27:49.158Z,7.20
2018-11-25T04:30:19.487Z,7.10
2018-11-25T04:32:50.107Z,7.07
2018-11-25T04:35:19.725Z,7.08
2018-11-25T04:37:49.011Z,7.07
2018-11-25T04:40:19.368Z,7.09
2018-11-25T04:42:48.610Z,7.11
2018-11-25T04:45:18.658Z,7.14
2018-11-25T04:47:48.124Z,7.09
2018-11-25T04:50:19.420Z,7.09
2018-11-25T04:52:48.722Z,7.06
2018-11-25T04:55:18.733Z,7.00
2018-11-25T04:57:50.412Z,6.87
2018-11-25T05:00:20.743Z,6.85
2018-11-25T05:02:50.772Z,6.95
2018-11-25T05:05:20.157Z,7.06
2018-11-25T05:07:49.354Z,7.01
2018-11-25T05:10:19.560Z,7.07
2018-11-25T05:12:48.795Z,7.10
2018-11-25T05:15:20.387Z,7.15
2018-11-25T05:17:49.734Z,7.23
2018-11-25T05:20:20.260Z,7.22
2018-11-25T05:22:49.512Z,7.14
2018-11-25T05:25:20.105Z,7.17
2018-11-25T05:27:49.389Z,6.96
2018-11-25T05:30:20.287Z,6.79
2018-11-25T05:32:49.535Z,6.73
2018-11-25T05:35:20.936Z,6.66
2018-11-25T05:37:50.167Z,6.77
2018-11-25T05:40:20.248Z,6.85
2018-11-25T05:42:49.457Z,6.91
2018-11-25T05:45:20.477Z,6.72
2018-11-25T05:47:49.693Z,6.76
2018-11-25T05:50:19.982Z,6.79
2018-11-25T05:52:49.237Z,6.89
2018-11-25T05:55:19.292Z,6.83
2018-11-25T05:57:48.563Z,6.72
2018-11-25T06:00:28.295Z,6.67
2018-11-25T06:02:57.546Z,6.62
2018-11-25T06:05:26.813Z,6.64
2018-11-25T06:07:56.074Z,6.63
2018-11-25T06:10:25.382Z,6.69
2018-11-25T06:12:54.645Z,6.65
2018-11-25T06:15:24.025Z,6.70
2018-11-25T06:17:53.270Z,6.76
2018-11-25T06:20:22.489Z,6.87
2018-11-25T06:22:51.677Z,6.65
2018-11-25T06:25:21.596Z,6.63
2018-11-25T06:27:50.799Z,6.51
2018-11-25T06:30:20.603Z,6.52
2018-11-25T06:32:49.867Z,6.54
2018-11-25T06:35:19.839Z,6.59
2018-11-25T06:37:49.061Z,6.48
2018-11-25T06:40:19.200Z,6.54
2018-11-25T06:42:48.475Z,6.50
2018-11-25T06:45:19.841Z,6.38
2018-11-25T06:47:49.070Z,6.42
2018-11-25T06:50:18.333Z,6.61
2018-11-25T06:52:47.510Z,6.65
2018-11-25T06:55:16.764Z,6.66
2018-11-25T06:57:45.938Z,6.68
2018-11-25T07:00:18.057Z,6.60
2018-11-25T07:02:47.289Z,6.75
2018-11-25T07:05:16.563Z,6.72
2018-11-25T07:07:45.821Z,6.80
2018-11-25T07:10:18.859Z,6.90
2018-11-25T07:12:49.007Z,6.89
2018-11-25T07:15:18.738Z,6.86
2018-11-25T07:17:48.013Z,6.94
2018-11-25T07:20:18.060Z,6.96
2018-11-25T07:22:47.328Z,7.07
2018-11-25T07:25:18.609Z,6.95
2018-11-25T07:27:47.820Z,6.94
2018-11-25T07:30:21.602Z,7.03
2018-11-25T07:32:50.820Z,6.97
2018-11-25T07:35:20.068Z,6.91
2018-11-25T07:37:49.301Z,6.73
2018-11-25T07:40:20.227Z,6.72
2018-11-25T07:42:49.648Z,6.62
2018-11-25T07:45:21.442Z,6.64
2018-11-25T07:47:50.672Z,6.72
2018-11-25T07:50:19.973Z,6.77
2018-11-25T07:52:49.608Z,6.65
2018-11-25T07:55:20.745Z,6.77
2018-11-25T07:57:50.865Z,6.79
2018-11-25T08:00:20.985Z,6.71
2018-11-25T08:02:50.988Z,6.58
2018-11-25T08:05:23.041Z,6.62
2018-11-25T08:07:52.275Z,6.52
2018-11-25T08:10:21.519Z,6.53
2018-11-25T08:12:50.718Z,6.44
2018-11-25T08:15:20.227Z,6.48
2018-11-25T08:17:49.424Z,6.71
2018-11-25T08:20:19.551Z,7.06
2018-11-25T08:22:48.856Z,7.11
2018-11-25T08:25:18.892Z,7.17
2018-11-25T08:27:48.104Z,7.11
2018-11-25T08:30:19.160Z,7.17
2018-11-25T08:32:48.558Z,7.22
2018-11-25T08:35:17.976Z,7.21
2018-11-25T08:37:47.182Z,7.23
2018-11-25T08:40:19.378Z,7.28
2018-11-25T08:42:48.647Z,7.62
2018-11-25T08:45:17.888Z,7.43
2018-11-25T08:47:47.188Z,7.75
2018-11-25T08:50:18.644Z,7.74
2018-11-25T08:52:50.942Z,7.66
2018-11-25T08:55:22.211Z,7.95
2018-11-25T08:57:51.552Z,7.70
2018-11-25T09:00:23.601Z,7.68
2018-11-25T09:02:53.856Z,7.56
2018-11-25T09:05:23.114Z,7.54
2018-11-25T09:07:52.433Z,7.44
2018-11-25T09:10:22.411Z,7.39
2018-11-25T09:12:56.571Z,7.16
2018-11-25T09:15:26.688Z,7.24
2018-11-25T09:17:55.963Z,7.52
2018-11-25T09:20:25.255Z,7.46
2018-11-25T09:22:54.491Z,7.55
2018-11-25T09:25:26.755Z,7.49
2018-11-25T09:27:56.507Z,7.56
2018-11-25T09:30:26.645Z,7.70
2018-11-25T09:32:55.920Z,7.92
2018-11-25T09:35:25.411Z,7.95
2018-11-25T09:37:54.658Z,8.05
2018-11-25T09:40:25.972Z,8.05
2018-11-25T09:42:55.181Z,7.95
2018-11-25T09:45:24.390Z,8.05
2018-11-25T09:47:53.639Z,8.03
2018-11-25T09:50:23.601Z,7.86
2018-11-25T09:52:52.807Z,7.96
2018-11-25T09:55:23.002Z,7.68
2018-11-25T09:57:57.211Z,7.70
2018-11-25T10:00:27.741Z,7.43
2018-11-25T10:02:56.938Z,7.58
2018-11-25T10:05:26.270Z,7.52
2018-11-25T10:07:55.478Z,7.69
2018-11-25T10:10:25.259Z,7.73
2018-11-25T10:12:54.445Z,7.80
2018-11-25T10:15:25.837Z,7.96
2018-11-25T10:17:59.807Z,7.84
2018-11-25T10:20:26.841Z,7.80
2018-11-25T10:22:56.039Z,7.86
2018-11-25T10:25:25.251Z,7.78
2018-11-25T10:27:54.552Z,7.92
2018-11-25T10:30:25.900Z,7.87
2018-11-25T10:33:01.310Z,7.71
2018-11-25T10:35:30.580Z,7.92
2018-11-25T10:37:59.791Z,7.81
2018-11-25T10:40:29.044Z,7.77
2018-11-25T10:42:58.233Z,7.79
2018-11-25T10:45:28.258Z,7.96
2018-11-25T10:47:58.078Z,7.90
2018-11-25T10:50:27.357Z,7.95
2018-11-25T10:52:56.641Z,8.07
2018-11-25T10:55:25.855Z,8.29
2018-11-25T10:57:55.097Z,8.18
2018-11-25T11:00:32.780Z,8.23
2018-11-25T11:03:08.375Z,8.14
2018-11-25T11:05:43.750Z,8.21
2018-11-25T11:08:14.979Z,8.30
2018-11-25T11:10:45.494Z,8.63
2018-11-25T11:13:16.036Z,8.28
2018-11-25T11:15:46.575Z,8.19
2018-11-25T11:18:15.965Z,8.35
2018-11-25T11:20:46.334Z,8.45
2018-11-25T11:23:15.566Z,8.43
2018-11-25T11:25:44.891Z,8.70
2018-11-25T11:28:14.070Z,8.81
2018-11-25T11:30:43.279Z,8.72
2018-11-25T11:33:12.457Z,8.81
2018-11-25T11:35:42.070Z,8.91
2018-11-25T11:38:11.263Z,8.78
2018-11-25T11:40:40.476Z,8.79
2018-11-25T11:43:10.161Z,8.66
2018-11-25T11:45:39.413Z,8.60
2018-11-25T11:48:08.665Z,8.50
2018-11-25T11:50:37.847Z,8.72
2018-11-25T11:53:07.347Z,8.67
2018-11-25T11:55:36.579Z,8.33
2018-11-25T11:58:05.975Z,8.53
2018-11-25T12:00:35.285Z,8.63
2018-11-25T12:03:04.549Z,8.91
2018-11-25T12:05:33.847Z,9.03
2018-11-25T12:08:03.144Z,8.93
2018-11-25T12:10:32.378Z,9.01
2018-11-25T12:13:01.796Z,8.73
2018-11-25T12:15:31.804Z,8.90
2018-11-25T12:18:01.596Z,8.97
2018-11-25T12:20:31.748Z,9.00
2018-11-25T12:23:01.215Z,8.89
2018-11-25T12:25:30.415Z,8.80
2018-11-25T12:27:59.625Z,8.73
2018-11-25T12:30:28.903Z,8.64
2018-11-25T12:33:01.029Z,8.46
2018-11-25T12:35:30.192Z,8.56
2018-11-25T12:37:59.421Z,8.41
2018-11-25T12:40:28.623Z,8.57
2018-11-25T12:42:58.692Z,8.68
2018-11-25T12:45:27.941Z,8.82
2018-11-25T12:47:57.216Z,8.94
2018-11-25T12:50:26.924Z,8.99
2018-11-25T12:52:56.490Z,8.92
2018-11-25T12:55:27.523Z,9.04
2018-11-25T12:57:57.416Z,9.06
2018-11-25T13:00:34.769Z,9.15
2018-11-25T13:03:04.016Z,9.21
2018-11-25T13:05:33.263Z,9.33
2018-11-25T13:08:02.451Z,9.16
2018-11-25T13:10:32.056Z,9.02
2018-11-25T13:13:01.837Z,9.06
2018-11-25T13:15:31.060Z,9.16
2018-11-25T13:18:00.262Z,8.92
2018-11-25T13:20:29.870Z,9.12
2018-11-25T13:22:59.094Z,9.20
2018-11-25T13:25:28.345Z,9.03
2018-11-25T13:27:57.573Z,9.04
2018-11-25T13:30:30.761Z,8.89
2018-11-25T13:33:01.021Z,9.06
2018-11-25T13:35:33.597Z,9.06
2018-11-25T13:38:02.801Z,9.00
2018-11-25T13:40:32.013Z,9.01
2018-11-25T13:43:01.187Z,8.73
2018-11-25T13:45:30.451Z,8.62
2018-11-25T13:47:59.723Z,8.73
2018-11-25T13:50:28.913Z,8.65
2018-11-25T13:52:58.143Z,8.77
2018-11-25T13:55:28.241Z,8.87
2018-11-25T13:57:57.453Z,8.83
2018-11-25T14:01:03.479Z,8.85
2018-11-25T14:03:36.165Z,8.98
2018-11-25T14:06:08.362Z,8.92
2018-11-25T14:08:37.553Z,8.99
2018-11-25T14:11:10.826Z,8.81
2018-11-25T14:13:40.121Z,8.62
2018-11-25T14:16:11.263Z,8.66
2018-11-25T14:18:40.418Z,8.62
2018-11-25T14:21:09.955Z,8.64
2018-11-25T14:23:39.298Z,8.69
2018-11-25T14:26:16.343Z,8.55
2018-11-25T14:28:45.933Z,8.53
2018-11-25T14:31:16.410Z,8.65
2018-11-25T14:33:45.623Z,8.62
2018-11-25T14:36:14.957Z,8.67
2018-11-25T14:38:45.316Z,8.51
2018-11-25T14:41:14.168Z,8.43
2018-11-25T14:43:43.346Z,8.30
2018-11-25T14:46:12.545Z,8.28
2018-11-25T14:48:41.952Z,8.29
2018-11-25T14:51:11.232Z,8.26
2018-11-25T14:53:40.453Z,8.18
2018-11-25T14:56:10.033Z,8.09
2018-11-25T14:58:39.224Z,7.99
2018-11-25T15:01:08.782Z,7.88
2018-11-25T15:03:37.980Z,7.91
2018-11-25T15:06:07.369Z,7.84
2018-11-25T15:08:36.558Z,7.91
2018-11-25T15:11:05.942Z,7.84
2018-11-25T15:13:35.114Z,7.81
2018-11-25T15:16:06.213Z,7.93
2018-11-25T15:18:35.446Z,7.79
2018-11-25T15:21:04.801Z,7.92
2018-11-25T15:23:34.011Z,7.70
2018-11-25T15:26:03.231Z,7.81
2018-11-25T15:28:32.432Z,7.70
2018-11-25T15:31:01.687Z,7.55
2018-11-25T15:33:31.015Z,7.43
2018-11-25T15:36:00.258Z,7.39
2018-11-25T15:38:29.445Z,7.44
2018-11-25T15:40:58.678Z,7.51
2018-11-25T15:43:27.895Z,7.63
2018-11-25T15:45:57.568Z,7.45
2018-11-25T15:48:28.284Z,7.50
2018-11-25T15:50:57.498Z,7.44
2018-11-25T15:53:27.248Z,7.39
2018-11-25T15:55:59.272Z,7.36
2018-11-25T15:58:28.619Z,7.35
2018-11-25T16:00:57.848Z,7.36
2018-11-25T16:03:27.898Z,7.32
2018-11-25T16:06:02.116Z,7.38
2018-11-25T16:08:38.081Z,7.35
2018-11-25T16:11:00.605Z,7.46
2018-11-25T16:13:29.787Z,7.36
2018-11-25T16:15:58.967Z,7.34
2018-11-25T16:18:28.218Z,7.44
2018-11-25T16:20:57.454Z,7.35
2018-11-25T16:23:26.644Z,7.27
2018-11-25T16:25:57.668Z,7.29
2018-11-25T16:28:32.768Z,7.36
2018-11-25T16:31:01.990Z,7.44
2018-11-25T16:33:31.181Z,7.40
2018-11-25T16:36:00.423Z,7.41
2018-11-25T16:38:36.674Z,7.32
2018-11-25T16:41:06.681Z,7.31
2018-11-25T16:43:35.905Z,7.26
2018-11-25T16:46:05.171Z,7.31
2018-11-25T16:48:34.471Z,7.36
2018-11-25T16:51:03.981Z,7.54
2018-11-25T16:53:33.178Z,7.41
2018-11-25T16:56:02.378Z,7.56
2018-11-25T16:58:31.635Z,7.58
2018-11-25T17:01:00.986Z,7.60
2018-11-25T17:03:30.173Z,7.48
2018-11-25T17:05:59.358Z,7.41
2018-11-25T17:08:35.601Z,7.42
2018-11-25T17:11:04.879Z,7.51
2018-11-25T17:13:34.105Z,7.23
2018-11-25T17:16:03.333Z,7.34
2018-11-25T17:18:32.604Z,7.35
2018-11-25T17:21:02.659Z,7.42
2018-11-25T17:23:31.865Z,7.42
2018-11-25T17:26:01.076Z,7.29
2018-11-25T17:28:30.325Z,7.34
2018-11-25T17:30:59.496Z,7.30
2018-11-25T17:33:28.738Z,7.29
2018-11-25T17:35:57.947Z,7.30
2018-11-25T17:38:27.168Z,7.22
2018-11-25T17:40:56.358Z,7.03
2018-11-25T17:43:25.755Z,7.03
2018-11-25T17:45:54.993Z,7.01
2018-11-25T17:48:24.221Z,6.96
2018-11-25T17:50:53.464Z,7.06
2018-11-25T17:53:22.673Z,7.14
2018-11-25T17:55:52.201Z,7.29
2018-11-25T17:58:21.505Z,7.36
2018-11-25T18:01:01.266Z,7.18
2018-11-25T18:03:32.481Z,7.19
2018-11-25T18:06:01.687Z,7.16
2018-11-25T18:08:31.020Z,7.24
2018-11-25T18:11:00.254Z,7.28
2018-11-25T18:13:32.173Z,7.10
2018-11-25T18:16:02.770Z,7.24
2018-11-25T18:18:39.099Z,7.31
2018-11-25T18:21:09.940Z,7.13
2018-11-25T18:23:39.189Z,7.13
2018-11-25T18:26:08.417Z,7.14
2018-11-25T18:28:37.624Z,7.23
2018-11-25T18:31:08.643Z,7.09
2018-11-25T18:33:37.908Z,7.03
2018-11-25T18:36:08.271Z,7.03
2018-11-25T18:39:06.906Z,6.97
2018-11-25T18:41:36.152Z,6.93
2018-11-25T18:44:05.759Z,6.94
2018-11-25T18:46:35.104Z,7.06
2018-11-25T18:49:07.542Z,7.03
2018-11-25T18:51:36.744Z,7.06
2018-11-25T18:54:07.307Z,6.91
2018-11-25T18:56:36.617Z,6.85
2018-11-25T18:59:06.115Z,6.85
2018-11-25T19:01:48.484Z,6.78
2018-11-25T19:04:19.353Z,6.65
2018-11-25T19:06:48.657Z,6.52
2018-11-25T19:09:22.619Z,6.53
2018-11-25T19:11:51.888Z,6.63
2018-11-25T19:14:21.181Z,6.70
2018-11-25T19:16:50.544Z,6.63
2018-11-25T19:19:19.758Z,6.78
2018-11-25T19:21:49.006Z,6.71
2018-11-25T19:24:18.268Z,6.69
2018-11-25T19:26:47.571Z,6.67
2018-11-25T19:29:17.334Z,6.68
2018-11-25T19:31:46.612Z,6.66
2018-11-25T19:34:16.420Z,6.74
2018-11-25T19:36:48.785Z,6.77
2018-11-25T19:39:18.979Z,6.77
2018-11-25T19:41:48.209Z,6.73
2018-11-25T19:44:18.006Z,6.64
2018-11-25T19:46:47.226Z,6.40
2018-11-25T19:49:17.858Z,6.52
2018-11-25T19:51:47.169Z,6.56
2018-11-25T19:54:26.408Z,6.46
2018-11-25T19:56:57.638Z,6.55
2018-11-25T19:59:38.938Z,6.71
2018-11-25T20:02:08.389Z,6.61
2018-11-25T20:04:37.643Z,6.53
2018-11-25T20:07:06.980Z,6.54
2018-11-25T20:09:36.418Z,6.49
2018-11-25T20:12:05.997Z,6.38
2018-11-25T20:14:35.187Z,6.36
2018-11-25T20:17:10.209Z,6.39
2018-11-25T20:19:39.768Z,6.52
2018-11-25T20:22:17.461Z,6.55
2018-11-25T20:24:46.754Z,6.59
2018-11-25T20:27:21.791Z,6.52
2018-11-25T20:29:51.562Z,6.53
2018-11-25T20:32:25.883Z,6.51
2018-11-25T20:34:55.134Z,6.56
2018-11-25T20:37:26.931Z,6.45
2018-11-25T20:39:53.572Z,6.56
2018-11-25T20:42:22.805Z,6.64
2018-11-25T20:44:52.057Z,6.55
2018-11-25T20:47:22.226Z,6.62
2018-11-25T20:49:51.456Z,6.51
2018-11-25T20:52:25.860Z,6.46
2018-11-25T20:54:55.050Z,6.38
2018-11-25T20:57:24.438Z,6.41
2018-11-25T20:59:53.663Z,6.38
2018-11-25T21:02:28.986Z,6.32
2018-11-25T21:04:52.091Z,6.33
2018-11-25T21:07:21.723Z,6.30
2018-11-25T21:09:50.962Z,6.31
2018-11-25T21:12:20.206Z,6.42
2018-11-25T21:14:49.391Z,6.47
2018-11-25T21:17:18.903Z,6.34
2018-11-25T21:19:49.434Z,6.35
2018-11-25T21:22:18.852Z,6.22
2018-11-25T21:24:48.104Z,6.05
2018-11-25T21:27:17.372Z,5.99
2018-11-25T21:29:46.575Z,6.17
2018-11-25T21:32:16.117Z,6.11
2018-11-25T21:34:45.436Z,6.01
2018-11-25T21:37:15.232Z,6.04
2018-11-25T21:39:44.411Z,6.00
2018-11-25T21:42:14.176Z,5.90
2018-11-25T21:44:43.385Z,5.90
2018-11-25T21:47:12.783Z,5.92
2018-11-25T21:49:41.966Z,6.00
2018-11-25T21:52:11.332Z,6.07
2018-11-25T21:54:40.504Z,6.22
2018-11-25T21:57:09.792Z,6.21
2018-11-25T21:59:39.030Z,6.20
2018-11-25T22:02:08.330Z,6.24
2018-11-25T22:04:37.614Z,6.24
2018-11-25T22:07:07.211Z,6.38
2018-11-25T22:09:36.711Z,6.44
2018-11-25T22:12:05.999Z,6.43
2018-11-25T22:14:35.530Z,6.37
2018-11-25T22:17:05.438Z,6.49
2018-11-25T22:19:34.715Z,6.52
2018-11-25T22:22:03.947Z,6.51
2018-11-25T22:24:33.798Z,6.47
2018-11-25T22:27:03.477Z,6.37
2018-11-25T22:29:33.989Z,6.53
2018-11-25T22:32:03.547Z,6.48
2018-11-25T22:34:33.120Z,6.48
2018-11-25T22:37:03.030Z,6.44
2018-11-25T22:39:32.521Z,6.65
2018-11-25T22:42:01.725Z,6.54
2018-11-25T22:44:30.953Z,6.63
2018-11-25T22:47:00.161Z,6.64
2018-11-25T22:49:29.385Z,6.68
2018-11-25T22:51:58.598Z,6.75
2018-11-25T22:54:27.811Z,6.83
2018-11-25T22:56:57.085Z,6.80
2018-11-25T22:59:26.573Z,6.64
2018-11-25T23:01:55.822Z,6.66
2018-11-25T23:04:36.076Z,6.56
2018-11-25T23:07:05.355Z,6.74
2018-11-25T23:09:34.572Z,6.69
2018-11-25T23:12:03.846Z,6.72
2018-11-25T23:14:33.052Z,6.80
2018-11-25T23:17:02.393Z,6.75
2018-11-25T23:19:31.604Z,6.81
2018-11-25T23:22:00.862Z,6.73
2018-11-25T23:24:30.065Z,6.53
2018-11-25T23:26:59.251Z,6.64
2018-11-25T23:29:28.562Z,6.95
2018-11-25T23:31:57.820Z,6.93
2018-11-25T23:34:27.125Z,6.73
2018-11-25T23:36:56.356Z,6.78
2018-11-25T23:39:25.584Z,6.54
2018-11-25T23:41:54.799Z,6.76
2018-11-25T23:44:24.024Z,6.84
2018-11-25T23:46:53.364Z,6.81
2018-11-25T23:49:22.629Z,6.75
2018-11-25T23:51:51.837Z,6.78
2018-11-25T23:54:21.038Z,6.73
2018-11-25T23:56:50.232Z,6.70
2018-11-25T23:59:19.423Z,6.83
